sensor_id;sensor_type;location;lat;lon;timestamp;temperature;humidity
14471;DHT22;7321;50.802;4.336;2024-03-08T00:12:15;6.40;99.90
14471;DHT22;7321;50.802;4.336;2024-03-08T00:14:41;6.30;99.90
14471;DHT22;7321;50.802;4.336;2024-03-08T00:17:07;6.30;99.90
14471;DHT22;7321;50.802;4.336;2024-03-08T00:19:32;6.30;99.90
14471;DHT22;7321;50.802;4.336;2024-03-08T00:21:58;6.30;99.90
14471;DHT22;7321;50.802;4.336;2024-03-08T00:24:24;6.40;99.90
14471;DHT22;7321;50.802;4.336;2024-03-08T00:26:50;6.30;99.90
14471;DHT22;7321;50.802;4.336;2024-03-08T00:29:16;6.10;99.90
14471;DHT22;7321;50.802;4.336;2024-03-08T00:31:43;6.10;99.90
14471;DHT22;7321;50.802;4.336;2024-03-08T00:34:08;6.20;99.90
14471;DHT22;7321;50.802;4.336;2024-03-08T00:36:37;6.30;99.90
14471;DHT22;7321;50.802;4.336;2024-03-08T00:39:03;6.20;99.90
14471;DHT22;7321;50.802;4.336;2024-03-08T00:41:32;6.20;99.90
14471;DHT22;7321;50.802;4.336;2024-03-08T00:43:58;6.10;99.90
14471;DHT22;7321;50.802;4.336;2024-03-08T00:46:35;6.10;99.90
14471;DHT22;7321;50.802;4.336;2024-03-08T00:49:01;6.20;99.90
14471;DHT22;7321;50.802;4.336;2024-03-08T00:51:27;6.10;99.90
14471;DHT22;7321;50.802;4.336;2024-03-08T00:53:53;6.00;99.90
14471;DHT22;7321;50.802;4.336;2024-03-08T00:56:19;5.90;99.90
14471;DHT22;7321;50.802;4.336;2024-03-08T00:58:44;5.80;99.90
14471;DHT22;7321;50.802;4.336;2024-03-08T01:01:10;5.90;99.90
14471;DHT22;7321;50.802;4.336;2024-03-08T01:03:38;5.80;99.90
14471;DHT22;7321;50.802;4.336;2024-03-08T01:06:04;5.80;99.90
14471;DHT22;7321;50.802;4.336;2024-03-08T01:08:30;5.80;99.90
14471;DHT22;7321;50.802;4.336;2024-03-08T01:10:56;5.70;99.90
14471;DHT22;7321;50.802;4.336;2024-03-08T01:13:21;5.70;99.90
14471;DHT22;7321;50.802;4.336;2024-03-08T01:15:48;5.80;99.90
14471;DHT22;7321;50.802;4.336;2024-03-08T01:18:14;5.80;99.90
14471;DHT22;7321;50.802;4.336;2024-03-08T01:20:39;5.80;99.90
14471;DHT22;7321;50.802;4.336;2024-03-08T01:23:06;5.70;99.90
14471;DHT22;7321;50.802;4.336;2024-03-08T01:25:33;5.70;99.90
14471;DHT22;7321;50.802;4.336;2024-03-08T01:27:59;5.80;99.90
14471;DHT22;7321;50.802;4.336;2024-03-08T01:30:25;5.80;99.90
14471;DHT22;7321;50.802;4.336;2024-03-08T01:32:51;5.90;99.90
14471;DHT22;7321;50.802;4.336;2024-03-08T01:35:17;5.90;99.90
14471;DHT22;7321;50.802;4.336;2024-03-08T01:37:43;5.80;99.90
14471;DHT22;7321;50.802;4.336;2024-03-08T01:40:10;5.70;99.90
14471;DHT22;7321;50.802;4.336;2024-03-08T01:42:35;5.70;99.90
14471;DHT22;7321;50.802;4.336;2024-03-08T01:45:07;5.60;99.90
14471;DHT22;7321;50.802;4.336;2024-03-08T01:47:34;5.70;99.90
14471;DHT22;7321;50.802;4.336;2024-03-08T01:50:00;5.60;99.90
14471;DHT22;7321;50.802;4.336;2024-03-08T01:52:29;5.60;99.90
14471;DHT22;7321;50.802;4.336;2024-03-08T01:55:02;5.40;99.90
14471;DHT22;7321;50.802;4.336;2024-03-08T01:57:31;5.40;99.90
14471;DHT22;7321;50.802;4.336;2024-03-08T01:59:59;5.40;99.90
14471;DHT22;7321;50.802;4.336;2024-03-08T02:02:31;5.40;99.90
14471;DHT22;7321;50.802;4.336;2024-03-08T02:04:57;5.40;99.90
14471;DHT22;7321;50.802;4.336;2024-03-08T02:07:23;5.30;99.90
14471;DHT22;7321;50.802;4.336;2024-03-08T02:09:49;5.30;99.90
14471;DHT22;7321;50.802;4.336;2024-03-08T02:12:15;5.30;99.90
14471;DHT22;7321;50.802;4.336;2024-03-08T02:14:40;5.40;99.90
14471;DHT22;7321;50.802;4.336;2024-03-08T02:17:06;5.40;99.90
14471;DHT22;7321;50.802;4.336;2024-03-08T02:19:33;5.40;99.90
14471;DHT22;7321;50.802;4.336;2024-03-08T02:22:00;5.40;99.90
14471;DHT22;7321;50.802;4.336;2024-03-08T02:24:30;5.20;99.90
14471;DHT22;7321;50.802;4.336;2024-03-08T02:26:56;5.20;99.90
14471;DHT22;7321;50.802;4.336;2024-03-08T02:29:22;5.10;99.90
14471;DHT22;7321;50.802;4.336;2024-03-08T02:31:51;5.00;99.90
14471;DHT22;7321;50.802;4.336;2024-03-08T02:34:17;5.00;99.90
14471;DHT22;7321;50.802;4.336;2024-03-08T02:36:42;5.00;99.90
14471;DHT22;7321;50.802;4.336;2024-03-08T02:39:08;5.00;99.90
14471;DHT22;7321;50.802;4.336;2024-03-08T02:41:36;5.00;99.90
14471;DHT22;7321;50.802;4.336;2024-03-08T02:44:02;4.90;99.90
14471;DHT22;7321;50.802;4.336;2024-03-08T02:46:28;4.90;99.90
14471;DHT22;7321;50.802;4.336;2024-03-08T02:48:54;4.80;99.90
14471;DHT22;7321;50.802;4.336;2024-03-08T02:51:19;4.90;99.90
14471;DHT22;7321;50.802;4.336;2024-03-08T02:53:46;4.90;99.90
14471;DHT22;7321;50.802;4.336;2024-03-08T02:56:14;4.90;99.90
14471;DHT22;7321;50.802;4.336;2024-03-08T02:58:42;5.00;99.90
14471;DHT22;7321;50.802;4.336;2024-03-08T03:01:09;5.00;99.90
14471;DHT22;7321;50.802;4.336;2024-03-08T03:03:36;4.90;99.90
14471;DHT22;7321;50.802;4.336;2024-03-08T03:06:02;4.90;99.90
14471;DHT22;7321;50.802;4.336;2024-03-08T03:08:28;4.90;99.90
14471;DHT22;7321;50.802;4.336;2024-03-08T03:10:54;4.80;99.90
14471;DHT22;7321;50.802;4.336;2024-03-08T03:13:22;4.70;99.90
14471;DHT22;7321;50.802;4.336;2024-03-08T03:15:49;4.80;99.90
14471;DHT22;7321;50.802;4.336;2024-03-08T03:18:14;4.80;99.90
14471;DHT22;7321;50.802;4.336;2024-03-08T03:20:41;4.70;99.90
14471;DHT22;7321;50.802;4.336;2024-03-08T03:23:08;4.80;99.90
14471;DHT22;7321;50.802;4.336;2024-03-08T03:25:35;4.90;99.90
14471;DHT22;7321;50.802;4.336;2024-03-08T03:28:02;4.80;99.90
14471;DHT22;7321;50.802;4.336;2024-03-08T03:30:28;4.80;99.90
14471;DHT22;7321;50.802;4.336;2024-03-08T03:33:02;4.80;99.90
14471;DHT22;7321;50.802;4.336;2024-03-08T03:35:32;4.80;99.90
14471;DHT22;7321;50.802;4.336;2024-03-08T03:37:58;4.70;99.90
14471;DHT22;7321;50.802;4.336;2024-03-08T03:40:34;4.60;99.90
14471;DHT22;7321;50.802;4.336;2024-03-08T03:43:01;4.60;99.90
14471;DHT22;7321;50.802;4.336;2024-03-08T03:45:27;4.50;99.90
14471;DHT22;7321;50.802;4.336;2024-03-08T03:47:53;4.40;99.90
14471;DHT22;7321;50.802;4.336;2024-03-08T03:50:19;4.40;99.90
14471;DHT22;7321;50.802;4.336;2024-03-08T03:52:46;4.30;99.90
14471;DHT22;7321;50.802;4.336;2024-03-08T03:55:12;4.30;99.90
14471;DHT22;7321;50.802;4.336;2024-03-08T03:57:39;4.40;99.90
14471;DHT22;7321;50.802;4.336;2024-03-08T04:00:06;4.40;99.90
14471;DHT22;7321;50.802;4.336;2024-03-08T04:02:39;4.40;99.90
14471;DHT22;7321;50.802;4.336;2024-03-08T04:05:06;4.50;99.90
14471;DHT22;7321;50.802;4.336;2024-03-08T04:07:33;4.40;99.90
14471;DHT22;7321;50.802;4.336;2024-03-08T04:09:58;4.50;99.90
14471;DHT22;7321;50.802;4.336;2024-03-08T04:12:24;4.50;99.90
14471;DHT22;7321;50.802;4.336;2024-03-08T04:14:50;4.40;99.90
14471;DHT22;7321;50.802;4.336;2024-03-08T04:17:16;4.50;99.90
14471;DHT22;7321;50.802;4.336;2024-03-08T04:19:43;4.40;99.90
14471;DHT22;7321;50.802;4.336;2024-03-08T04:22:09;4.40;99.90
14471;DHT22;7321;50.802;4.336;2024-03-08T04:24:35;4.40;99.90
14471;DHT22;7321;50.802;4.336;2024-03-08T04:27:01;4.10;99.90
14471;DHT22;7321;50.802;4.336;2024-03-08T04:29:27;4.10;99.90
14471;DHT22;7321;50.802;4.336;2024-03-08T04:31:52;4.10;99.90
14471;DHT22;7321;50.802;4.336;2024-03-08T04:34:22;4.10;99.90
14471;DHT22;7321;50.802;4.336;2024-03-08T04:36:49;4.00;99.90
14471;DHT22;7321;50.802;4.336;2024-03-08T04:39:14;4.10;99.90
14471;DHT22;7321;50.802;4.336;2024-03-08T04:41:42;4.20;99.90
14471;DHT22;7321;50.802;4.336;2024-03-08T04:44:10;4.10;99.90
14471;DHT22;7321;50.802;4.336;2024-03-08T04:46:36;4.20;99.90
14471;DHT22;7321;50.802;4.336;2024-03-08T04:49:02;4.10;99.90
14471;DHT22;7321;50.802;4.336;2024-03-08T04:51:28;4.10;99.90
14471;DHT22;7321;50.802;4.336;2024-03-08T04:53:53;4.10;99.90
14471;DHT22;7321;50.802;4.336;2024-03-08T04:56:19;4.10;99.90
14471;DHT22;7321;50.802;4.336;2024-03-08T04:58:45;3.90;99.90
14471;DHT22;7321;50.802;4.336;2024-03-08T05:01:15;4.00;99.90
14471;DHT22;7321;50.802;4.336;2024-03-08T05:03:41;4.00;99.90
14471;DHT22;7321;50.802;4.336;2024-03-08T05:06:07;4.00;99.90
14471;DHT22;7321;50.802;4.336;2024-03-08T05:08:33;4.00;99.90
14471;DHT22;7321;50.802;4.336;2024-03-08T05:10:58;4.00;99.90
14471;DHT22;7321;50.802;4.336;2024-03-08T05:13:26;4.10;99.90
14471;DHT22;7321;50.802;4.336;2024-03-08T05:15:52;4.10;99.90
14471;DHT22;7321;50.802;4.336;2024-03-08T05:18:18;4.10;99.90
14471;DHT22;7321;50.802;4.336;2024-03-08T05:20:44;4.00;99.90
14471;DHT22;7321;50.802;4.336;2024-03-08T05:23:10;4.00;99.90
14471;DHT22;7321;50.802;4.336;2024-03-08T05:25:36;4.00;99.90
14471;DHT22;7321;50.802;4.336;2024-03-08T05:28:02;4.00;99.90
14471;DHT22;7321;50.802;4.336;2024-03-08T05:30:29;4.00;99.90
14471;DHT22;7321;50.802;4.336;2024-03-08T05:32:55;4.00;99.90
14471;DHT22;7321;50.802;4.336;2024-03-08T05:35:22;4.10;99.90
14471;DHT22;7321;50.802;4.336;2024-03-08T05:37:48;3.90;99.90
14471;DHT22;7321;50.802;4.336;2024-03-08T05:40:14;3.80;99.90
14471;DHT22;7321;50.802;4.336;2024-03-08T05:42:40;3.80;99.90
14471;DHT22;7321;50.802;4.336;2024-03-08T05:45:06;3.70;99.90
14471;DHT22;7321;50.802;4.336;2024-03-08T05:47:32;3.70;99.90
14471;DHT22;7321;50.802;4.336;2024-03-08T05:49:59;3.70;99.90
14471;DHT22;7321;50.802;4.336;2024-03-08T05:52:25;3.60;99.90
14471;DHT22;7321;50.802;4.336;2024-03-08T05:54:54;3.60;99.90
14471;DHT22;7321;50.802;4.336;2024-03-08T05:57:20;3.70;99.90
14471;DHT22;7321;50.802;4.336;2024-03-08T05:59:48;3.70;99.90
14471;DHT22;7321;50.802;4.336;2024-03-08T06:02:13;3.70;99.90
14471;DHT22;7321;50.802;4.336;2024-03-08T06:04:45;3.70;99.90
14471;DHT22;7321;50.802;4.336;2024-03-08T06:07:12;3.70;99.90
14471;DHT22;7321;50.802;4.336;2024-03-08T06:09:38;3.60;99.90
14471;DHT22;7321;50.802;4.336;2024-03-08T06:12:04;3.60;99.90
14471;DHT22;7321;50.802;4.336;2024-03-08T06:14:32;3.70;99.90
14471;DHT22;7321;50.802;4.336;2024-03-08T06:16:58;3.80;99.90
14471;DHT22;7321;50.802;4.336;2024-03-08T06:19:23;3.80;99.90
14471;DHT22;7321;50.802;4.336;2024-03-08T06:21:49;3.80;99.90
14471;DHT22;7321;50.802;4.336;2024-03-08T06:24:15;3.70;99.90
14471;DHT22;7321;50.802;4.336;2024-03-08T06:26:41;3.70;99.90
14471;DHT22;7321;50.802;4.336;2024-03-08T06:29:06;3.70;99.90
14471;DHT22;7321;50.802;4.336;2024-03-08T06:31:32;3.70;99.90
14471;DHT22;7321;50.802;4.336;2024-03-08T06:33:58;3.80;99.90
14471;DHT22;7321;50.802;4.336;2024-03-08T06:36:24;3.80;99.90
14471;DHT22;7321;50.802;4.336;2024-03-08T06:38:50;3.80;99.90
14471;DHT22;7321;50.802;4.336;2024-03-08T06:41:16;3.90;99.90
14471;DHT22;7321;50.802;4.336;2024-03-08T06:43:43;3.90;99.90
14471;DHT22;7321;50.802;4.336;2024-03-08T06:46:09;3.90;99.90
14471;DHT22;7321;50.802;4.336;2024-03-08T06:48:38;3.80;99.90
14471;DHT22;7321;50.802;4.336;2024-03-08T06:51:04;3.80;99.90
14471;DHT22;7321;50.802;4.336;2024-03-08T06:53:31;3.70;99.90
14471;DHT22;7321;50.802;4.336;2024-03-08T06:55:58;3.70;99.90
14471;DHT22;7321;50.802;4.336;2024-03-08T06:58:24;3.80;99.90
14471;DHT22;7321;50.802;4.336;2024-03-08T07:00:50;3.80;99.90
14471;DHT22;7321;50.802;4.336;2024-03-08T07:03:18;3.90;99.90
14471;DHT22;7321;50.802;4.336;2024-03-08T07:05:44;3.90;99.90
14471;DHT22;7321;50.802;4.336;2024-03-08T07:08:10;4.00;99.90
14471;DHT22;7321;50.802;4.336;2024-03-08T07:10:39;4.10;99.90
14471;DHT22;7321;50.802;4.336;2024-03-08T07:13:07;4.00;99.90
14471;DHT22;7321;50.802;4.336;2024-03-08T07:15:33;3.90;99.90
14471;DHT22;7321;50.802;4.336;2024-03-08T07:18:00;3.90;99.90
14471;DHT22;7321;50.802;4.336;2024-03-08T07:20:26;4.00;99.90
14471;DHT22;7321;50.802;4.336;2024-03-08T07:22:54;4.10;99.90
14471;DHT22;7321;50.802;4.336;2024-03-08T07:25:20;4.10;99.90
14471;DHT22;7321;50.802;4.336;2024-03-08T07:27:51;4.00;99.90
14471;DHT22;7321;50.802;4.336;2024-03-08T07:30:17;4.00;99.90
14471;DHT22;7321;50.802;4.336;2024-03-08T07:33:02;4.00;99.90
14471;DHT22;7321;50.802;4.336;2024-03-08T07:35:29;4.20;99.90
14471;DHT22;7321;50.802;4.336;2024-03-08T07:37:55;4.20;99.90
14471;DHT22;7321;50.802;4.336;2024-03-08T07:40:21;4.20;99.90
14471;DHT22;7321;50.802;4.336;2024-03-08T07:42:47;4.20;99.90
14471;DHT22;7321;50.802;4.336;2024-03-08T07:45:13;4.40;99.90
14471;DHT22;7321;50.802;4.336;2024-03-08T07:47:39;4.40;99.90
14471;DHT22;7321;50.802;4.336;2024-03-08T07:50:06;4.40;99.90
14471;DHT22;7321;50.802;4.336;2024-03-08T07:52:35;4.50;99.90
14471;DHT22;7321;50.802;4.336;2024-03-08T07:55:02;4.50;99.90
14471;DHT22;7321;50.802;4.336;2024-03-08T07:57:31;4.60;99.90
14471;DHT22;7321;50.802;4.336;2024-03-08T07:59:57;4.60;99.90
14471;DHT22;7321;50.802;4.336;2024-03-08T08:02:23;4.70;99.90
14471;DHT22;7321;50.802;4.336;2024-03-08T08:04:49;4.80;99.90
14471;DHT22;7321;50.802;4.336;2024-03-08T08:07:15;5.00;99.90
14471;DHT22;7321;50.802;4.336;2024-03-08T08:09:41;5.10;99.90
14471;DHT22;7321;50.802;4.336;2024-03-08T08:12:09;5.20;99.90
14471;DHT22;7321;50.802;4.336;2024-03-08T08:15:01;5.20;99.90
14471;DHT22;7321;50.802;4.336;2024-03-08T08:17:32;5.40;99.90
14471;DHT22;7321;50.802;4.336;2024-03-08T08:20:00;5.50;99.90
14471;DHT22;7321;50.802;4.336;2024-03-08T08:22:26;5.70;99.90
14471;DHT22;7321;50.802;4.336;2024-03-08T08:24:53;5.80;99.90
14471;DHT22;7321;50.802;4.336;2024-03-08T08:27:19;5.80;99.90
14471;DHT22;7321;50.802;4.336;2024-03-08T08:29:44;5.80;99.90
14471;DHT22;7321;50.802;4.336;2024-03-08T08:32:19;5.90;99.90
14471;DHT22;7321;50.802;4.336;2024-03-08T08:34:45;5.90;99.90
14471;DHT22;7321;50.802;4.336;2024-03-08T08:37:17;6.00;99.90
14471;DHT22;7321;50.802;4.336;2024-03-08T08:39:43;6.10;99.90
14471;DHT22;7321;50.802;4.336;2024-03-08T08:42:10;6.20;99.90
14471;DHT22;7321;50.802;4.336;2024-03-08T08:44:36;6.30;99.90
14471;DHT22;7321;50.802;4.336;2024-03-08T08:47:02;6.20;99.90
14471;DHT22;7321;50.802;4.336;2024-03-08T08:49:31;6.30;99.90
14471;DHT22;7321;50.802;4.336;2024-03-08T08:51:57;6.40;99.90
14471;DHT22;7321;50.802;4.336;2024-03-08T08:54:28;6.30;99.90
14471;DHT22;7321;50.802;4.336;2024-03-08T08:56:55;6.40;99.90
14471;DHT22;7321;50.802;4.336;2024-03-08T08:59:23;6.60;99.90
14471;DHT22;7321;50.802;4.336;2024-03-08T09:01:55;6.60;99.90
14471;DHT22;7321;50.802;4.336;2024-03-08T09:04:21;6.60;99.90
14471;DHT22;7321;50.802;4.336;2024-03-08T09:06:47;6.70;99.90
14471;DHT22;7321;50.802;4.336;2024-03-08T09:09:13;6.80;99.90
14471;DHT22;7321;50.802;4.336;2024-03-08T09:11:39;6.90;99.90
14471;DHT22;7321;50.802;4.336;2024-03-08T09:14:07;7.00;99.90
14471;DHT22;7321;50.802;4.336;2024-03-08T09:16:34;7.00;99.90
14471;DHT22;7321;50.802;4.336;2024-03-08T09:19:00;7.30;99.90
14471;DHT22;7321;50.802;4.336;2024-03-08T09:21:27;7.40;99.90
14471;DHT22;7321;50.802;4.336;2024-03-08T09:23:53;7.30;99.90
14471;DHT22;7321;50.802;4.336;2024-03-08T09:26:19;7.20;99.90
14471;DHT22;7321;50.802;4.336;2024-03-08T09:28:45;7.20;99.90
14471;DHT22;7321;50.802;4.336;2024-03-08T09:31:11;7.30;99.90
14471;DHT22;7321;50.802;4.336;2024-03-08T09:33:40;7.20;99.90
14471;DHT22;7321;50.802;4.336;2024-03-08T09:36:07;7.20;99.90
14471;DHT22;7321;50.802;4.336;2024-03-08T09:38:33;7.20;99.90
14471;DHT22;7321;50.802;4.336;2024-03-08T09:41:02;7.30;99.90
14471;DHT22;7321;50.802;4.336;2024-03-08T09:43:29;7.40;99.90
14471;DHT22;7321;50.802;4.336;2024-03-08T09:45:57;7.60;99.90
14471;DHT22;7321;50.802;4.336;2024-03-08T09:48:23;7.80;99.90
14471;DHT22;7321;50.802;4.336;2024-03-08T09:50:49;7.90;99.90
14471;DHT22;7321;50.802;4.336;2024-03-08T09:53:15;7.90;99.90
14471;DHT22;7321;50.802;4.336;2024-03-08T09:55:42;7.90;99.90
14471;DHT22;7321;50.802;4.336;2024-03-08T09:58:11;7.90;99.90
14471;DHT22;7321;50.802;4.336;2024-03-08T10:00:58;7.90;99.90
14471;DHT22;7321;50.802;4.336;2024-03-08T10:03:24;7.80;99.90
14471;DHT22;7321;50.802;4.336;2024-03-08T10:05:53;7.90;99.90
14471;DHT22;7321;50.802;4.336;2024-03-08T10:08:26;7.90;99.90
14471;DHT22;7321;50.802;4.336;2024-03-08T10:10:52;8.10;99.90
14471;DHT22;7321;50.802;4.336;2024-03-08T10:13:18;8.10;99.90
14471;DHT22;7321;50.802;4.336;2024-03-08T10:15:45;8.40;99.90
14471;DHT22;7321;50.802;4.336;2024-03-08T10:18:11;8.40;99.90
14471;DHT22;7321;50.802;4.336;2024-03-08T10:20:37;8.40;99.90
14471;DHT22;7321;50.802;4.336;2024-03-08T10:23:03;8.20;99.90
14471;DHT22;7321;50.802;4.336;2024-03-08T10:25:34;8.30;99.90
14471;DHT22;7321;50.802;4.336;2024-03-08T10:28:02;8.50;99.90
14471;DHT22;7321;50.802;4.336;2024-03-08T10:30:29;8.70;99.90
14471;DHT22;7321;50.802;4.336;2024-03-08T10:32:58;8.70;99.90
14471;DHT22;7321;50.802;4.336;2024-03-08T10:35:24;8.70;99.90
14471;DHT22;7321;50.802;4.336;2024-03-08T10:37:52;8.70;99.90
14471;DHT22;7321;50.802;4.336;2024-03-08T10:40:25;8.90;99.90
14471;DHT22;7321;50.802;4.336;2024-03-08T10:48:10;8.90;99.90
14471;DHT22;7321;50.802;4.336;2024-03-08T10:50:38;8.90;99.90
14471;DHT22;7321;50.802;4.336;2024-03-08T10:53:06;9.10;99.90
14471;DHT22;7321;50.802;4.336;2024-03-08T10:55:33;9.30;99.90
14471;DHT22;7321;50.802;4.336;2024-03-08T10:57:59;9.50;99.90
14471;DHT22;7321;50.802;4.336;2024-03-08T11:00:26;9.70;99.90
14471;DHT22;7321;50.802;4.336;2024-03-08T11:02:53;9.90;99.90
14471;DHT22;7321;50.802;4.336;2024-03-08T11:05:39;9.90;99.90
14471;DHT22;7321;50.802;4.336;2024-03-08T11:10:49;10.10;99.90
14471;DHT22;7321;50.802;4.336;2024-03-08T11:13:39;10.00;99.90
14471;DHT22;7321;50.802;4.336;2024-03-08T11:16:36;9.90;99.90
14471;DHT22;7321;50.802;4.336;2024-03-08T11:19:05;9.90;99.90
14471;DHT22;7321;50.802;4.336;2024-03-08T11:21:32;9.90;99.90
14471;DHT22;7321;50.802;4.336;2024-03-08T11:24:10;9.90;99.90
14471;DHT22;7321;50.802;4.336;2024-03-08T11:26:37;9.80;99.90
14471;DHT22;7321;50.802;4.336;2024-03-08T11:32:09;10.00;99.90
14471;DHT22;7321;50.802;4.336;2024-03-08T11:34:36;10.20;99.90
14471;DHT22;7321;50.802;4.336;2024-03-08T11:37:16;10.20;99.90
14471;DHT22;7321;50.802;4.336;2024-03-08T11:39:54;10.10;99.90
14471;DHT22;7321;50.802;4.336;2024-03-08T11:42:28;10.20;99.90
14471;DHT22;7321;50.802;4.336;2024-03-08T11:44:54;10.30;99.90
14471;DHT22;7321;50.802;4.336;2024-03-08T11:47:20;10.40;99.90
14471;DHT22;7321;50.802;4.336;2024-03-08T11:49:46;10.50;99.90
14471;DHT22;7321;50.802;4.336;2024-03-08T11:52:17;10.40;99.90
14471;DHT22;7321;50.802;4.336;2024-03-08T11:54:56;10.50;99.90
14471;DHT22;7321;50.802;4.336;2024-03-08T11:57:23;10.50;99.90
14471;DHT22;7321;50.802;4.336;2024-03-08T11:59:50;10.50;99.90
14471;DHT22;7321;50.802;4.336;2024-03-08T12:02:16;10.50;99.90
14471;DHT22;7321;50.802;4.336;2024-03-08T12:04:45;10.50;99.90
14471;DHT22;7321;50.802;4.336;2024-03-08T12:07:11;10.60;99.90
14471;DHT22;7321;50.802;4.336;2024-03-08T12:09:40;10.70;99.90
14471;DHT22;7321;50.802;4.336;2024-03-08T12:12:07;10.70;99.90
14471;DHT22;7321;50.802;4.336;2024-03-08T12:14:33;11.00;99.90
14471;DHT22;7321;50.802;4.336;2024-03-08T12:16:59;11.00;99.90
14471;DHT22;7321;50.802;4.336;2024-03-08T12:19:30;11.10;99.90
14471;DHT22;7321;50.802;4.336;2024-03-08T12:21:56;11.00;99.90
14471;DHT22;7321;50.802;4.336;2024-03-08T12:24:22;11.00;99.90
14471;DHT22;7321;50.802;4.336;2024-03-08T12:26:48;11.00;99.90
14471;DHT22;7321;50.802;4.336;2024-03-08T12:31:46;11.30;99.90
14471;DHT22;7321;50.802;4.336;2024-03-08T12:34:13;11.40;99.90
14471;DHT22;7321;50.802;4.336;2024-03-08T12:36:49;11.60;99.90
14471;DHT22;7321;50.802;4.336;2024-03-08T12:39:22;11.60;99.90
14471;DHT22;7321;50.802;4.336;2024-03-08T12:41:49;11.70;99.90
14471;DHT22;7321;50.802;4.336;2024-03-08T12:44:18;11.70;99.90
14471;DHT22;7321;50.802;4.336;2024-03-08T12:46:44;11.60;99.90
14471;DHT22;7321;50.802;4.336;2024-03-08T12:49:11;11.60;99.90
14471;DHT22;7321;50.802;4.336;2024-03-08T12:51:38;11.70;99.90
14471;DHT22;7321;50.802;4.336;2024-03-08T12:54:05;11.80;99.90
14471;DHT22;7321;50.802;4.336;2024-03-08T12:56:34;11.70;99.90
14471;DHT22;7321;50.802;4.336;2024-03-08T12:59:00;11.80;99.90
14471;DHT22;7321;50.802;4.336;2024-03-08T13:01:26;11.70;99.90
14471;DHT22;7321;50.802;4.336;2024-03-08T13:03:55;11.70;99.90
14471;DHT22;7321;50.802;4.336;2024-03-08T13:06:22;11.70;99.90
14471;DHT22;7321;50.802;4.336;2024-03-08T13:08:53;11.80;99.90
14471;DHT22;7321;50.802;4.336;2024-03-08T13:11:19;12.00;99.90
14471;DHT22;7321;50.802;4.336;2024-03-08T13:13:46;12.10;99.90
14471;DHT22;7321;50.802;4.336;2024-03-08T13:16:12;12.30;99.90
14471;DHT22;7321;50.802;4.336;2024-03-08T13:18:41;12.30;99.90
14471;DHT22;7321;50.802;4.336;2024-03-08T13:21:10;12.40;99.90
14471;DHT22;7321;50.802;4.336;2024-03-08T13:23:40;12.60;99.90
14471;DHT22;7321;50.802;4.336;2024-03-08T13:26:07;12.60;99.90
14471;DHT22;7321;50.802;4.336;2024-03-08T13:28:33;12.60;99.90
14471;DHT22;7321;50.802;4.336;2024-03-08T13:31:06;12.40;99.90
14471;DHT22;7321;50.802;4.336;2024-03-08T13:33:38;12.30;99.90
14471;DHT22;7321;50.802;4.336;2024-03-08T13:36:08;12.30;99.90
14471;DHT22;7321;50.802;4.336;2024-03-08T13:38:49;12.40;99.90
14471;DHT22;7321;50.802;4.336;2024-03-08T13:41:16;12.40;99.90
14471;DHT22;7321;50.802;4.336;2024-03-08T13:43:46;12.30;99.90
14471;DHT22;7321;50.802;4.336;2024-03-08T13:46:14;12.50;99.90
14471;DHT22;7321;50.802;4.336;2024-03-08T13:48:40;12.50;99.90
14471;DHT22;7321;50.802;4.336;2024-03-08T13:51:07;12.60;99.90
14471;DHT22;7321;50.802;4.336;2024-03-08T13:53:33;12.60;99.90
14471;DHT22;7321;50.802;4.336;2024-03-08T13:56:03;12.70;99.90
14471;DHT22;7321;50.802;4.336;2024-03-08T13:58:29;12.80;99.90
14471;DHT22;7321;50.802;4.336;2024-03-08T14:00:58;12.80;99.90
14471;DHT22;7321;50.802;4.336;2024-03-08T14:03:24;12.70;99.90
14471;DHT22;7321;50.802;4.336;2024-03-08T14:05:50;12.60;99.90
14471;DHT22;7321;50.802;4.336;2024-03-08T14:08:16;12.60;99.90
14471;DHT22;7321;50.802;4.336;2024-03-08T14:10:43;12.50;99.90
14471;DHT22;7321;50.802;4.336;2024-03-08T14:13:12;12.70;99.90
14471;DHT22;7321;50.802;4.336;2024-03-08T14:15:40;12.80;99.90
14471;DHT22;7321;50.802;4.336;2024-03-08T14:18:08;12.90;99.90
14471;DHT22;7321;50.802;4.336;2024-03-08T14:20:33;12.90;99.90
14471;DHT22;7321;50.802;4.336;2024-03-08T14:22:59;13.00;99.90
14471;DHT22;7321;50.802;4.336;2024-03-08T14:25:25;13.00;99.90
14471;DHT22;7321;50.802;4.336;2024-03-08T14:27:53;13.10;99.90
14471;DHT22;7321;50.802;4.336;2024-03-08T14:30:20;13.00;99.90
14471;DHT22;7321;50.802;4.336;2024-03-08T14:33:16;13.10;99.90
14471;DHT22;7321;50.802;4.336;2024-03-08T14:35:42;13.30;99.90
14471;DHT22;7321;50.802;4.336;2024-03-08T14:38:09;13.30;99.90
14471;DHT22;7321;50.802;4.336;2024-03-08T14:40:36;13.30;99.90
14471;DHT22;7321;50.802;4.336;2024-03-08T14:43:02;13.30;99.90
14471;DHT22;7321;50.802;4.336;2024-03-08T14:45:30;13.50;99.90
14471;DHT22;7321;50.802;4.336;2024-03-08T14:47:56;13.40;99.90
14471;DHT22;7321;50.802;4.336;2024-03-08T14:50:24;13.40;99.90
14471;DHT22;7321;50.802;4.336;2024-03-08T14:52:53;13.30;99.90
14471;DHT22;7321;50.802;4.336;2024-03-08T14:55:20;13.50;99.90
14471;DHT22;7321;50.802;4.336;2024-03-08T14:57:49;13.50;99.50
14471;DHT22;7321;50.802;4.336;2024-03-08T15:00:18;13.60;99.10
14471;DHT22;7321;50.802;4.336;2024-03-08T15:02:59;13.50;98.70
14471;DHT22;7321;50.802;4.336;2024-03-08T15:05:25;13.50;98.70
14471;DHT22;7321;50.802;4.336;2024-03-08T15:07:58;13.40;99.00
14471;DHT22;7321;50.802;4.336;2024-03-08T15:10:28;13.40;99.30
14471;DHT22;7321;50.802;4.336;2024-03-08T15:12:56;13.40;98.30
14471;DHT22;7321;50.802;4.336;2024-03-08T15:15:25;13.20;98.50
14471;DHT22;7321;50.802;4.336;2024-03-08T15:17:51;13.20;98.50
14471;DHT22;7321;50.802;4.336;2024-03-08T15:20:19;13.20;98.60
14471;DHT22;7321;50.802;4.336;2024-03-08T15:22:55;13.20;98.80
14471;DHT22;7321;50.802;4.336;2024-03-08T15:25:24;13.20;99.10
14471;DHT22;7321;50.802;4.336;2024-03-08T15:27:53;13.20;99.20
14471;DHT22;7321;50.802;4.336;2024-03-08T15:30:20;13.30;99.30
14471;DHT22;7321;50.802;4.336;2024-03-08T15:32:52;13.30;99.00
14471;DHT22;7321;50.802;4.336;2024-03-08T15:35:26;13.30;98.90
14471;DHT22;7321;50.802;4.336;2024-03-08T15:38:00;13.20;99.10
14471;DHT22;7321;50.802;4.336;2024-03-08T15:40:26;13.20;99.30
14471;DHT22;7321;50.802;4.336;2024-03-08T15:43:00;13.30;99.90
14471;DHT22;7321;50.802;4.336;2024-03-08T15:45:26;13.30;99.90
14471;DHT22;7321;50.802;4.336;2024-03-08T15:47:53;13.50;99.90
14471;DHT22;7321;50.802;4.336;2024-03-08T15:50:19;13.50;99.90
14471;DHT22;7321;50.802;4.336;2024-03-08T15:52:49;13.40;99.90
14471;DHT22;7321;50.802;4.336;2024-03-08T15:55:21;13.50;99.90
14471;DHT22;7321;50.802;4.336;2024-03-08T15:57:53;13.40;99.90
14471;DHT22;7321;50.802;4.336;2024-03-08T16:00:22;13.30;99.90
14471;DHT22;7321;50.802;4.336;2024-03-08T16:03:14;13.10;99.90
14471;DHT22;7321;50.802;4.336;2024-03-08T16:05:41;13.20;99.90
14471;DHT22;7321;50.802;4.336;2024-03-08T16:08:17;13.20;99.90
14471;DHT22;7321;50.802;4.336;2024-03-08T16:10:54;13.10;99.90
14471;DHT22;7321;50.802;4.336;2024-03-08T16:13:26;13.00;99.90
14471;DHT22;7321;50.802;4.336;2024-03-08T16:15:53;12.80;99.90
14471;DHT22;7321;50.802;4.336;2024-03-08T16:18:20;12.90;99.90
14471;DHT22;7321;50.802;4.336;2024-03-08T16:20:48;13.10;99.90
14471;DHT22;7321;50.802;4.336;2024-03-08T16:23:15;12.90;99.90
14471;DHT22;7321;50.802;4.336;2024-03-08T16:25:41;12.90;99.90